createdAt,value
2023-03-02T00:00:16.698Z,57.40
2023-03-02T00:03:04.128Z,56.30
2023-03-02T00:05:49.637Z,55.90
2023-03-02T00:08:35.581Z,55.40
2023-03-02T00:11:21.639Z,54.90
2023-03-02T00:14:07.529Z,54.40
2023-03-02T00:16:52.987Z,54.50
2023-03-02T00:19:39.103Z,54.60
2023-03-02T00:22:24.683Z,55.10
2023-03-02T00:25:11.811Z,54.50
2023-03-02T00:27:57.093Z,55.20
2023-03-02T00:30:42.708Z,55.70
2023-03-02T00:33:28.316Z,56.50
2023-03-02T00:36:18.351Z,56.50
2023-03-02T00:39:04.834Z,57.50
2023-03-02T00:41:50.498Z,57.20
2023-03-02T00:44:35.752Z,57.10
2023-03-02T00:47:21.272Z,56.80
2023-03-02T00:50:07.066Z,56.70
2023-03-02T00:52:52.534Z,56.40
2023-03-02T00:55:38.475Z,56.40
2023-03-02T00:58:23.726Z,56.20
2023-03-02T01:01:11.555Z,56.60
2023-03-02T01:03:57.016Z,56.40
2023-03-02T01:06:47.260Z,57.10
2023-03-02T01:09:33.042Z,56.70
2023-03-02T01:12:19.424Z,56.60
2023-03-02T01:15:06.336Z,56.40
2023-03-02T01:17:52.126Z,56.10
2023-03-02T01:24:18.862Z,56.80
2023-03-02T01:27:04.515Z,57.70
2023-03-02T01:29:50.771Z,57.10
2023-03-02T01:32:36.231Z,57.70
2023-03-02T01:35:21.874Z,57.50
2023-03-02T01:38:07.369Z,57.40
2023-03-02T01:40:52.848Z,57.10
2023-03-02T01:43:38.944Z,57.10
2023-03-02T01:46:28.275Z,56.90
2023-03-02T01:49:15.373Z,57.20
2023-03-02T01:52:01.198Z,57.30
2023-03-02T01:54:49.923Z,57.50
2023-03-02T01:57:43.554Z,57.70
2023-03-02T02:00:36.672Z,57.60
2023-03-02T02:03:26.349Z,58.30
2023-03-02T02:06:38.097Z,58.00
2023-03-02T02:09:25.326Z,58.10
2023-03-02T02:12:20.047Z,58.00
2023-03-02T02:15:06.127Z,58.20
2023-03-02T02:17:54.349Z,58.10
2023-03-02T02:20:47.815Z,59.10
2023-03-02T02:23:56.737Z,57.70
2023-03-02T02:26:46.557Z,57.10
2023-03-02T02:29:35.034Z,56.60
2023-03-02T02:32:27.508Z,56.60
2023-03-02T02:35:19.934Z,56.50
2023-03-02T02:38:08.267Z,56.60
2023-03-02T02:41:00.029Z,57.30
2023-03-02T02:43:45.644Z,56.90
2023-03-02T02:46:32.965Z,57.30
2023-03-02T02:49:36.620Z,57.50
2023-03-02T02:52:27.815Z,57.40
2023-03-02T02:55:16.684Z,57.70
2023-03-02T02:58:10.038Z,57.30
2023-03-02T03:00:55.493Z,57.60
2023-03-02T03:03:47.377Z,57.70
2023-03-02T03:06:38.321Z,58.00
2023-03-02T03:09:24.468Z,58.60
2023-03-02T03:12:20.343Z,58.20
2023-03-02T03:15:06.727Z,57.80
2023-03-02T03:17:56.962Z,58.00
2023-03-02T03:20:42.554Z,57.90
2023-03-02T03:23:28.080Z,58.20
2023-03-02T03:26:13.700Z,57.90
2023-03-02T03:28:59.422Z,58.30
2023-03-02T03:31:45.082Z,58.20
2023-03-02T03:34:31.490Z,58.50
2023-03-02T03:37:19.572Z,58.50
2023-03-02T03:40:06.738Z,58.60
2023-03-02T03:42:51.999Z,59.30
2023-03-02T03:45:37.580Z,59.20
2023-03-02T03:48:23.151Z,59.70
2023-03-02T03:51:10.742Z,60.00
2023-03-02T03:54:02.074Z,59.80
2023-03-02T03:56:49.205Z,60.00
2023-03-02T03:59:34.568Z,59.50
2023-03-02T04:02:20.936Z,59.10
2023-03-02T04:05:08.258Z,59.10
2023-03-02T04:07:53.944Z,58.50
2023-03-02T04:10:40.079Z,58.30
2023-03-02T04:13:26.234Z,58.70
2023-03-02T04:16:11.890Z,59.10
2023-03-02T04:18:58.463Z,59.50
2023-03-02T04:21:47.015Z,59.40
2023-03-02T04:24:32.823Z,59.10
2023-03-02T04:27:19.185Z,58.90
2023-03-02T04:30:05.847Z,59.30
2023-03-02T04:32:51.359Z,58.80
2023-03-02T04:35:37.220Z,58.90
2023-03-02T04:38:23.448Z,59.10
2023-03-02T04:41:09.029Z,58.90
2023-03-02T04:43:54.466Z,59.10
2023-03-02T04:46:40.348Z,58.80
2023-03-02T04:49:26.705Z,59.10
2023-03-02T04:52:12.480Z,59.10
2023-03-02T04:54:57.868Z,60.00
2023-03-02T04:57:43.431Z,58.90
2023-03-02T05:00:28.958Z,59.60
2023-03-02T05:03:14.604Z,59.60
2023-03-02T05:06:02.197Z,59.40
2023-03-02T05:08:48.155Z,59.70
2023-03-02T05:11:34.551Z,59.00
2023-03-02T05:14:19.971Z,58.50
2023-03-02T05:17:05.283Z,58.30
2023-03-02T05:19:50.744Z,57.90
2023-03-02T05:22:36.280Z,58.20
2023-03-02T05:25:22.585Z,58.20
2023-03-02T05:28:07.853Z,58.00
2023-03-02T05:30:53.831Z,57.80
2023-03-02T05:33:39.328Z,57.60
2023-03-02T05:36:24.723Z,57.50
2023-03-02T05:39:09.993Z,57.50
2023-03-02T05:41:55.617Z,57.30
2023-03-02T05:44:41.158Z,56.90
2023-03-02T05:47:26.528Z,56.60
2023-03-02T05:50:12.114Z,57.60
2023-03-02T05:52:58.425Z,57.40
2023-03-02T05:55:43.897Z,57.30
2023-03-02T05:58:29.784Z,56.80
2023-03-02T06:01:15.687Z,56.40
2023-03-02T06:04:01.359Z,56.50
2023-03-02T06:06:47.031Z,57.20
2023-03-02T06:09:32.459Z,58.40
2023-03-02T06:12:18.197Z,57.20
2023-03-02T06:15:05.179Z,57.70
2023-03-02T06:17:50.905Z,57.20
2023-03-02T06:20:36.229Z,57.20
2023-03-02T06:23:21.757Z,57.00
2023-03-02T06:26:09.478Z,56.70
2023-03-02T06:28:54.878Z,56.70
2023-03-02T06:31:40.181Z,56.80
2023-03-02T06:34:26.148Z,56.40
2023-03-02T06:37:11.740Z,56.70
2023-03-02T06:39:58.315Z,56.50
2023-03-02T06:42:43.823Z,56.50
2023-03-02T06:45:29.624Z,56.60
2023-03-02T06:48:16.036Z,56.40
2023-03-02T06:51:01.230Z,56.40
2023-03-02T06:53:46.665Z,56.60
2023-03-02T06:56:32.831Z,56.90
2023-03-02T06:59:18.444Z,57.10
2023-03-02T07:02:04.131Z,57.50
2023-03-02T07:04:49.313Z,57.50
2023-03-02T07:07:34.895Z,57.50
2023-03-02T07:10:20.286Z,57.80
2023-03-02T07:13:08.042Z,58.10
2023-03-02T07:15:54.991Z,57.70
2023-03-02T07:18:40.774Z,57.90
2023-03-02T07:21:26.180Z,57.80
2023-03-02T07:24:11.606Z,57.60
2023-03-02T07:26:57.108Z,57.20
2023-03-02T07:29:42.811Z,56.30
2023-03-02T07:32:28.596Z,56.50
2023-03-02T07:35:13.770Z,55.50
2023-03-02T07:37:59.431Z,55.00
2023-03-02T07:40:45.221Z,55.10
2023-03-02T07:43:30.905Z,55.50
2023-03-02T07:46:16.544Z,54.30
2023-03-02T07:49:01.783Z,54.80
2023-03-02T07:51:47.393Z,54.50
2023-03-02T07:54:33.039Z,54.20
2023-03-02T07:57:18.412Z,54.10
2023-03-02T08:00:05.197Z,53.40
2023-03-02T08:02:50.649Z,53.10
2023-03-02T08:05:36.107Z,53.50
2023-03-02T08:08:21.386Z,51.70
2023-03-02T08:11:13.419Z,53.40
2023-03-02T08:14:03.376Z,51.90
2023-03-02T08:16:48.742Z,52.20
2023-03-02T08:19:34.482Z,51.90
2023-03-02T08:22:20.061Z,52.90
2023-03-02T08:25:07.324Z,51.40
2023-03-02T08:27:52.529Z,51.40
2023-03-02T08:30:38.575Z,51.00
2023-03-02T08:33:25.756Z,48.60
2023-03-02T08:36:18.266Z,50.90
2023-03-02T08:39:03.593Z,48.60
2023-03-02T08:41:54.794Z,48.60
2023-03-02T08:44:40.489Z,50.80
2023-03-02T08:47:26.039Z,51.00
2023-03-02T08:50:11.623Z,49.00
2023-03-02T08:52:56.871Z,47.50
2023-03-02T08:55:42.388Z,48.20
2023-03-02T08:58:28.217Z,48.40
2023-03-02T09:01:18.506Z,47.50
2023-03-02T09:04:05.841Z,48.00
2023-03-02T09:06:51.427Z,48.80
2023-03-02T09:09:37.121Z,49.30
2023-03-02T09:12:22.684Z,47.40
2023-03-02T09:15:08.543Z,45.30
2023-03-02T09:17:53.857Z,46.00
2023-03-02T09:20:39.496Z,46.30
2023-03-02T09:23:26.556Z,47.70
2023-03-02T09:26:12.012Z,47.80
2023-03-02T09:28:57.901Z,47.90
2023-03-02T09:31:43.444Z,46.70
2023-03-02T09:34:29.459Z,47.30
2023-03-02T09:37:15.294Z,48.00
2023-03-02T09:40:00.656Z,47.30
2023-03-02T09:42:51.971Z,47.70
2023-03-02T09:46:28.577Z,47.20
2023-03-02T09:49:31.926Z,46.70
2023-03-02T09:52:40.443Z,44.10
2023-03-02T09:55:32.196Z,45.40
2023-03-02T09:58:20.562Z,46.90
2023-03-02T10:01:16.832Z,45.20
2023-03-02T10:04:15.027Z,45.30
2023-03-02T10:07:35.999Z,45.40
2023-03-02T10:10:56.312Z,44.30
2023-03-02T10:13:47.700Z,46.40
2023-03-02T10:16:46.310Z,44.70
2023-03-02T10:19:47.631Z,42.30
2023-03-02T10:22:43.395Z,43.90
2023-03-02T10:25:48.716Z,44.80
2023-03-02T10:28:44.350Z,46.60
2023-03-02T10:31:32.916Z,46.70
2023-03-02T10:34:28.302Z,45.30
2023-03-02T10:37:16.720Z,45.90
2023-03-02T10:40:02.160Z,44.60
2023-03-02T10:42:48.964Z,43.70
2023-03-02T10:45:35.041Z,44.30
2023-03-02T10:48:20.807Z,41.00
2023-03-02T10:51:06.129Z,44.20
2023-03-02T10:54:13.961Z,43.00
2023-03-02T10:57:05.861Z,41.70
2023-03-02T10:59:52.120Z,42.00
2023-03-02T11:02:38.026Z,40.80
2023-03-02T11:05:33.990Z,42.20
2023-03-02T11:08:22.721Z,41.60
2023-03-02T11:11:22.402Z,40.20
2023-03-02T11:14:16.467Z,39.70
2023-03-02T11:17:03.581Z,36.70
2023-03-02T11:19:50.930Z,36.20
2023-03-02T11:22:49.936Z,35.30
2023-03-02T11:25:44.953Z,34.90
2023-03-02T11:28:56.894Z,33.90
2023-03-02T11:31:50.530Z,33.30
2023-03-02T11:34:51.029Z,30.30
2023-03-02T11:37:49.972Z,31.60
2023-03-02T11:40:58.487Z,31.50
2023-03-02T11:43:43.872Z,29.70
2023-03-02T11:46:32.255Z,29.30
2023-03-02T11:49:24.468Z,30.30
2023-03-02T11:52:20.252Z,29.00
2023-03-02T11:55:17.799Z,28.00
2023-03-02T11:58:04.819Z,29.50
2023-03-02T12:00:51.270Z,30.00
2023-03-02T12:03:40.829Z,28.60
2023-03-02T12:06:29.858Z,30.50
2023-03-02T12:09:24.581Z,26.00
2023-03-02T12:12:25.416Z,28.10
2023-03-02T12:15:38.800Z,31.10
2023-03-02T12:18:24.863Z,29.80
2023-03-02T12:21:22.171Z,32.60
2023-03-02T12:24:24.916Z,28.10
2023-03-02T12:27:13.354Z,26.10
2023-03-02T12:30:23.413Z,28.80
2023-03-02T12:33:11.824Z,26.60
2023-03-02T12:36:18.596Z,26.40
2023-03-02T12:39:07.095Z,23.70
2023-03-02T12:42:17.642Z,24.80
2023-03-02T12:45:43.397Z,23.00
2023-03-02T12:48:36.184Z,24.80
2023-03-02T12:51:25.418Z,22.50
2023-03-02T12:54:17.062Z,24.40
2023-03-02T12:57:17.508Z,23.40
2023-03-02T13:00:05.386Z,21.70
2023-03-02T13:02:53.638Z,22.40
2023-03-02T13:05:38.864Z,21.40
2023-03-02T13:08:28.787Z,20.30
2023-03-02T13:11:22.589Z,20.10
2023-03-02T13:14:25.956Z,21.60
2023-03-02T13:17:31.627Z,24.00
2023-03-02T13:20:27.429Z,22.50
2023-03-02T13:23:17.170Z,22.00
2023-03-02T13:26:05.519Z,19.50
2023-03-02T13:29:20.830Z,20.10
2023-03-02T13:32:26.754Z,19.50
2023-03-02T13:35:28.069Z,19.00
2023-03-02T13:38:18.679Z,18.70
2023-03-02T13:41:04.136Z,16.60
2023-03-02T13:43:49.774Z,17.60
2023-03-02T13:46:36.357Z,17.80
2023-03-02T13:49:34.315Z,16.00
2023-03-02T13:52:30.071Z,17.30
2023-03-02T13:55:18.040Z,17.10
2023-03-02T13:58:03.573Z,19.80
2023-03-02T14:00:49.693Z,24.40
2023-03-02T14:03:35.065Z,18.30
2023-03-02T14:06:20.830Z,18.70
2023-03-02T14:09:06.311Z,21.50
2023-03-02T14:11:54.579Z,17.20
2023-03-02T14:14:41.036Z,17.80
2023-03-02T14:17:27.143Z,20.10
2023-03-02T14:20:15.421Z,21.00
2023-03-02T14:23:03.495Z,17.40
2023-03-02T14:25:50.563Z,21.10
2023-03-02T14:28:36.112Z,15.90
2023-03-02T14:31:21.526Z,13.80
2023-03-02T14:34:09.361Z,17.90
2023-03-02T14:36:58.679Z,17.40
2023-03-02T14:39:55.616Z,18.70
2023-03-02T14:42:40.873Z,18.90
2023-03-02T14:45:26.344Z,15.60
2023-03-02T14:48:11.928Z,18.80
2023-03-02T14:50:59.733Z,15.80
2023-03-02T14:53:47.789Z,16.40
2023-03-02T14:56:33.368Z,14.80
2023-03-02T14:59:19.089Z,13.20
2023-03-02T15:02:19.064Z,16.80
2023-03-02T15:05:10.020Z,15.30
2023-03-02T15:07:58.702Z,16.20
2023-03-02T15:10:44.228Z,15.50
2023-03-02T15:13:29.473Z,16.10
2023-03-02T15:16:15.539Z,13.00
2023-03-02T15:19:00.823Z,13.40
2023-03-02T15:21:46.590Z,15.50
2023-03-02T15:24:33.383Z,14.10
2023-03-02T15:27:19.332Z,17.00
2023-03-02T15:30:05.609Z,17.00
2023-03-02T15:32:53.199Z,17.10
2023-03-02T15:35:39.635Z,16.80
2023-03-02T15:38:25.450Z,18.40
2023-03-02T15:41:13.156Z,17.20
2023-03-02T15:43:58.522Z,16.30
2023-03-02T15:46:44.253Z,16.00
2023-03-02T15:49:32.200Z,16.90
2023-03-02T15:52:19.728Z,16.90
2023-03-02T15:55:05.609Z,19.80
2023-03-02T15:57:51.861Z,21.00
2023-03-02T16:00:37.886Z,21.50
2023-03-02T16:03:24.356Z,23.00
2023-03-02T16:06:10.288Z,24.60
2023-03-02T16:08:55.898Z,23.70
2023-03-02T16:11:41.407Z,25.10
2023-03-02T16:14:26.908Z,25.80
2023-03-02T16:17:12.465Z,26.50
2023-03-02T16:19:58.188Z,27.40
2023-03-02T16:22:43.630Z,27.20
2023-03-02T16:25:29.161Z,28.30
2023-03-02T16:28:15.908Z,29.20
2023-03-02T16:31:05.911Z,30.10
2023-03-02T16:33:51.643Z,30.00
2023-03-02T16:36:39.379Z,30.30
2023-03-02T16:39:24.826Z,30.40
2023-03-02T16:42:10.396Z,31.20
2023-03-02T16:44:56.031Z,31.80
2023-03-02T16:47:41.581Z,32.70
2023-03-02T16:50:27.055Z,32.50
2023-03-02T16:53:15.509Z,32.70
2023-03-02T16:56:01.010Z,33.80
2023-03-02T16:58:46.546Z,33.40
2023-03-02T17:01:32.110Z,33.50
2023-03-02T17:04:18.528Z,34.10
2023-03-02T17:07:05.946Z,34.40
2023-03-02T17:09:51.155Z,35.00
2023-03-02T17:12:36.700Z,35.60
2023-03-02T17:15:22.185Z,35.40
2023-03-02T17:18:07.392Z,35.80
2023-03-02T17:20:53.693Z,36.90
2023-03-02T17:23:39.738Z,37.40
2023-03-02T17:26:25.341Z,37.50
2023-03-02T17:29:10.601Z,37.80
2023-03-02T17:31:56.340Z,39.40
2023-03-02T17:34:43.319Z,38.80
2023-03-02T17:37:30.352Z,38.80
2023-03-02T17:40:17.807Z,38.70
2023-03-02T17:43:03.072Z,39.00
2023-03-02T17:45:48.498Z,39.50
2023-03-02T17:48:33.973Z,40.80
2023-03-02T17:51:19.582Z,40.60
2023-03-02T17:54:05.077Z,41.70
2023-03-02T17:56:50.363Z,42.00
2023-03-02T17:59:35.862Z,42.80
2023-03-02T18:06:31.689Z,44.00
2023-03-02T18:09:16.975Z,44.40
2023-03-02T18:12:03.481Z,44.80
2023-03-02T18:14:48.867Z,44.50
2023-03-02T18:17:34.613Z,44.80
2023-03-02T18:20:20.250Z,45.00
2023-03-02T18:23:05.565Z,45.70
2023-03-02T18:25:51.260Z,46.20
2023-03-02T18:28:36.778Z,46.00
2023-03-02T18:31:22.682Z,47.10
2023-03-02T18:34:08.280Z,47.40
2023-03-02T18:36:53.622Z,47.10
2023-03-02T18:39:39.461Z,47.80
2023-03-02T18:42:25.042Z,48.50
2023-03-02T18:45:21.677Z,48.00
2023-03-02T18:48:07.276Z,49.00
2023-03-02T18:50:52.714Z,48.40
2023-03-02T18:53:38.198Z,48.20
2023-03-02T18:56:24.082Z,48.50
2023-03-02T18:59:09.891Z,48.20
2023-03-02T19:01:55.138Z,49.60
2023-03-02T19:04:40.702Z,49.20
2023-03-02T19:07:25.952Z,48.20
2023-03-02T19:10:12.078Z,48.10
2023-03-02T19:12:57.367Z,48.00
2023-03-02T19:15:43.385Z,50.30
2023-03-02T19:18:30.071Z,50.40
2023-03-02T19:21:16.319Z,51.20
2023-03-02T19:24:01.870Z,50.10
2023-03-02T19:26:47.129Z,48.80
2023-03-02T19:29:32.498Z,48.80
2023-03-02T19:32:20.127Z,52.20
2023-03-02T19:35:05.972Z,52.40
2023-03-02T19:37:52.029Z,52.10
2023-03-02T19:40:38.151Z,51.90
2023-03-02T19:43:24.467Z,51.90
2023-03-02T19:46:10.945Z,51.40
2023-03-02T19:48:56.357Z,51.30
2023-03-02T19:51:41.925Z,52.10
2023-03-02T19:54:27.693Z,53.10
2023-03-02T19:57:13.238Z,53.50
2023-03-02T19:59:59.452Z,53.80
2023-03-02T20:02:47.297Z,52.90
2023-03-02T20:05:32.939Z,52.70
2023-03-02T20:08:21.625Z,53.30
2023-03-02T20:11:06.981Z,53.40
2023-03-02T20:13:53.229Z,53.00
2023-03-02T20:16:39.990Z,52.80
2023-03-02T20:19:25.629Z,53.50
2023-03-02T20:22:11.220Z,53.80
2023-03-02T20:24:56.764Z,53.90
2023-03-02T20:27:42.743Z,55.00
2023-03-02T20:30:42.691Z,54.30
2023-03-02T20:33:33.022Z,54.70
2023-03-02T20:36:30.340Z,55.00
2023-03-02T20:39:18.518Z,54.80
2023-03-02T20:42:04.615Z,54.20
2023-03-02T20:44:49.867Z,54.20
2023-03-02T20:47:35.664Z,54.10
2023-03-02T20:50:26.034Z,54.20
2023-03-02T20:53:12.363Z,56.40
2023-03-02T20:55:58.092Z,56.40
2023-03-02T20:58:44.689Z,57.10
2023-03-02T21:01:30.251Z,56.50
2023-03-02T21:04:15.652Z,56.30
2023-03-02T21:07:00.984Z,55.90
2023-03-02T21:09:46.561Z,55.60
2023-03-02T21:12:33.338Z,56.60
2023-03-02T21:15:20.273Z,56.30
2023-03-02T21:18:05.754Z,56.20
2023-03-02T21:20:51.289Z,56.50
2023-03-02T21:23:36.635Z,56.50
2023-03-02T21:26:22.577Z,57.70
2023-03-02T21:29:09.460Z,58.40
2023-03-02T21:31:55.227Z,60.10
2023-03-02T21:34:40.632Z,62.10
2023-03-02T21:37:27.232Z,62.30
2023-03-02T21:40:17.302Z,62.90
2023-03-02T21:43:03.439Z,64.60
2023-03-02T21:45:49.212Z,64.30
2023-03-02T21:48:34.694Z,63.70
2023-03-02T21:51:20.716Z,63.60
2023-03-02T21:54:06.390Z,63.00
2023-03-02T21:56:51.818Z,62.30
2023-03-02T21:59:37.559Z,62.20
2023-03-02T22:02:22.712Z,61.70
2023-03-02T22:05:08.417Z,61.40
2023-03-02T22:07:53.868Z,60.70
2023-03-02T22:10:47.486Z,60.30
2023-03-02T22:13:34.116Z,60.10
2023-03-02T22:16:22.603Z,60.10
2023-03-02T22:19:29.390Z,62.10
2023-03-02T22:22:23.168Z,65.30
2023-03-02T22:25:16.101Z,64.60
2023-03-02T22:28:01.706Z,64.60
2023-03-02T22:30:48.159Z,64.60
2023-03-02T22:33:34.005Z,63.80
2023-03-02T22:36:22.734Z,62.70
2023-03-02T22:39:15.392Z,61.70
2023-03-02T22:42:12.183Z,62.10
2023-03-02T22:45:12.938Z,61.40
2023-03-02T22:47:59.421Z,61.60
2023-03-02T22:50:46.888Z,63.10
2023-03-02T22:53:43.323Z,64.30
2023-03-02T22:56:36.896Z,64.90
2023-03-02T22:59:25.195Z,65.80
2023-03-02T23:02:18.248Z,66.80
2023-03-02T23:05:28.350Z,66.90
2023-03-02T23:08:24.424Z,67.00
2023-03-02T23:11:16.607Z,65.80
2023-03-02T23:14:07.104Z,65.00
2023-03-02T23:17:16.945Z,63.90
2023-03-02T23:20:03.982Z,64.80
2023-03-02T23:22:50.077Z,68.00
2023-03-02T23:25:35.619Z,72.30
2023-03-02T23:28:21.170Z,74.80
2023-03-02T23:31:07.085Z,76.20
2023-03-02T23:33:52.396Z,76.40
2023-03-02T23:36:38.146Z,75.70
2023-03-02T23:39:23.787Z,75.20
2023-03-02T23:42:09.251Z,74.30
2023-03-02T23:44:55.661Z,73.20
2023-03-02T23:47:41.089Z,72.00
2023-03-02T23:50:26.562Z,71.60
2023-03-02T23:53:12.302Z,72.20
2023-03-02T23:55:57.700Z,73.60
2023-03-02T23:58:43.047Z,73.20
